Time;durP1;ratioP1;P1;durP2;ratioP2;P2;SDS_P1;SDS_P2;PMS_P1;PMS_P2;Temp;Humidity;BMP_temperature;BMP_pressure;BME280_temperature;BME280_humidity;BME280_pressure;Samples;Min_cycle;Max_cycle;Signal;HPM_P1;HPM_P2
2022/03/20 00:00:04;;;;;;;4.75;1.88;;;6.70;91.80;;;;;;4892951;29;20036;-90
2022/03/20 00:02:32;;;;;;;7.10;2.85;;;6.60;91.90;;;;;;4880766;29;20148;-91
2022/03/20 00:05:00;;;;;;;6.57;3.20;;;6.60;92.00;;;;;;4888530;29;20104;-88
2022/03/20 00:07:26;;;;;;;7.20;3.08;;;6.60;92.10;;;;;;4897112;29;20717;-89
2022/03/20 00:09:52;;;;;;;6.38;3.53;;;6.60;92.20;;;;;;4903033;29;20135;-89
2022/03/20 00:12:18;;;;;;;5.32;3.35;;;6.60;92.20;;;;;;4921709;29;20150;-91
2022/03/20 00:14:44;;;;;;;6.22;3.17;;;6.60;92.30;;;;;;4883924;29;20044;-89
2022/03/20 00:17:10;;;;;;;7.57;3.80;;;6.50;92.20;;;;;;4884099;29;20033;-90
2022/03/20 00:19:37;;;;;;;9.95;4.47;;;6.50;92.30;;;;;;4884419;29;20095;-89
2022/03/20 00:22:04;;;;;;;8.63;4.85;;;6.40;92.40;;;;;;4899781;29;20037;-90
2022/03/20 00:24:32;;;;;;;7.97;4.55;;;6.40;92.60;;;;;;4899437;29;20036;-91
2022/03/20 00:26:58;;;;;;;7.30;3.92;;;6.50;92.60;;;;;;4899311;29;20040;-91
2022/03/20 00:29:25;;;;;;;8.10;4.60;;;6.40;92.60;;;;;;4899630;29;20028;-90
2022/03/20 00:31:52;;;;;;;7.85;4.43;;;6.40;92.70;;;;;;4884147;29;20104;-90
2022/03/20 00:34:17;;;;;;;9.15;5.68;;;6.40;92.80;;;;;;4884265;29;20502;-90
2022/03/20 00:36:43;;;;;;;7.32;4.35;;;6.40;92.80;;;;;;4883879;29;20033;-90
2022/03/20 00:39:09;;;;;;;8.05;4.78;;;6.30;92.80;;;;;;4899273;29;20036;-90
2022/03/20 00:41:34;;;;;;;9.93;5.85;;;6.30;92.80;;;;;;4899528;29;20036;-90
2022/03/20 00:44:15;;;;;;;8.93;5.50;;;6.30;93.00;;;;;;4899488;29;20492;-91
2022/03/20 00:46:41;;;;;;;9.18;5.60;;;6.30;92.90;;;;;;4899782;29;20040;-89
2022/03/20 00:49:07;;;;;;;8.43;5.00;;;6.30;93.20;;;;;;4883860;29;20092;-91
2022/03/20 00:51:36;;;;;;;9.02;5.78;;;6.20;93.20;;;;;;4900356;29;20037;-89
2022/03/20 00:54:02;;;;;;;9.65;6.13;;;6.20;93.20;;;;;;4898652;29;20025;-91
2022/03/20 00:56:28;;;;;;;12.10;7.22;;;6.20;93.20;;;;;;4899922;29;20032;-90
2022/03/20 00:58:54;;;;;;;12.15;8.02;;;6.20;93.40;;;;;;4899465;29;20036;-90
2022/03/20 01:01:19;;;;;;;10.65;6.68;;;6.20;93.50;;;;;;4899102;29;20132;-90
2022/03/20 01:03:45;;;;;;;12.60;7.82;;;6.20;93.50;;;;;;4898811;29;20123;-91
2022/03/20 01:06:11;;;;;;;12.90;7.97;;;6.10;93.60;;;;;;4898648;29;20495;-90
2022/03/20 01:08:38;;;;;;;14.60;8.57;;;6.10;93.60;;;;;;4883113;29;20033;-90
2022/03/20 01:11:07;;;;;;;10.52;6.78;;;6.00;93.60;;;;;;4883055;29;20044;-89
2022/03/20 01:13:35;;;;;;;14.00;8.15;;;6.00;93.60;;;;;;4884604;29;20050;-89
2022/03/20 01:16:01;;;;;;;12.55;8.30;;;6.00;93.80;;;;;;4885803;29;20036;-90
2022/03/20 01:18:27;;;;;;;15.90;9.77;;;6.00;93.90;;;;;;4902010;29;20332;-89
2022/03/20 01:20:53;;;;;;;13.20;9.50;;;6.00;93.90;;;;;;4907544;29;20044;-90
2022/03/20 01:23:22;;;;;;;13.07;8.85;;;5.90;94.00;;;;;;4887532;29;20029;-90
2022/03/20 01:25:49;;;;;;;13.48;8.38;;;5.90;94.00;;;;;;4891029;29;20040;-89
2022/03/20 01:28:16;;;;;;;14.35;8.63;;;5.80;94.10;;;;;;4909860;29;20029;-88
2022/03/20 01:30:42;;;;;;;14.48;8.63;;;5.80;94.20;;;;;;4886898;29;20037;-90
2022/03/20 01:33:08;;;;;;;14.13;8.38;;;5.70;94.30;;;;;;4901517;29;20043;-91
2022/03/20 01:35:35;;;;;;;13.52;9.07;;;5.60;94.40;;;;;;4899631;29;20116;-92
2022/03/20 01:38:05;;;;;;;12.75;8.48;;;5.50;94.60;;;;;;4884092;29;20033;-90
2022/03/20 01:40:32;;;;;;;12.70;8.50;;;5.50;94.80;;;;;;4883485;29;20033;-91
2022/03/20 01:42:58;;;;;;;10.77;7.45;;;5.40;95.00;;;;;;4883776;29;20048;-90
2022/03/20 01:45:24;;;;;;;11.02;7.15;;;5.40;95.10;;;;;;4898725;29;20037;-89
2022/03/20 01:47:51;;;;;;;10.88;7.22;;;5.30;95.30;;;;;;4882940;29;20036;-91
2022/03/20 01:50:21;;;;;;;11.77;7.40;;;5.30;95.50;;;;;;4882887;29;20041;-90
2022/03/20 01:52:49;;;;;;;13.68;7.15;;;5.20;95.60;;;;;;4898762;29;20040;-91
2022/03/20 01:55:16;;;;;;;12.02;7.45;;;5.10;95.70;;;;;;4882565;29;20036;-90
2022/03/20 01:57:44;;;;;;;12.00;7.07;;;5.10;96.00;;;;;;4883130;29;20049;-89
2022/03/20 02:00:11;;;;;;;10.57;7.10;;;5.10;96.20;;;;;;4882567;29;20501;-90
2022/03/20 02:02:37;;;;;;;9.93;6.50;;;5.10;96.30;;;;;;4883256;29;20408;-90
2022/03/20 02:05:05;;;;;;;14.02;6.78;;;5.10;96.40;;;;;;4900897;29;20032;-90
2022/03/20 02:07:34;;;;;;;11.05;6.50;;;5.00;96.70;;;;;;4886571;29;20070;-90
2022/03/20 02:10:01;;;;;;;13.55;7.68;;;5.10;96.90;;;;;;4902124;29;20028;-92
2022/03/20 02:12:28;;;;;;;10.63;6.78;;;5.00;97.40;;;;;;4886918;29;20143;-90
2022/03/20 02:15:04;;;;;;;11.50;7.53;;;5.10;97.70;;;;;;4901784;29;20071;-90
2022/03/20 02:17:31;;;;;;;10.55;6.88;;;5.10;97.90;;;;;;4886206;29;20092;-90
2022/03/20 02:19:58;;;;;;;12.10;6.80;;;5.00;98.00;;;;;;4885602;29;20037;-89
2022/03/20 02:22:25;;;;;;;9.88;6.15;;;5.00;98.20;;;;;;4885646;29;20069;-90
2022/03/20 02:24:51;;;;;;;10.27;5.80;;;5.00;98.40;;;;;;4901582;29;20037;-92
2022/03/20 02:27:22;;;;;;;13.75;7.07;;;5.00;98.60;;;;;;4885862;29;20033;-91
2022/03/20 02:29:53;;;;;;;9.80;5.85;;;5.00;99.10;;;;;;4886608;29;20024;-91
2022/03/20 02:32:23;;;;;;;9.85;5.80;;;5.00;99.20;;;;;;4901025;29;20043;-89
2022/03/20 02:34:50;;;;;;;10.32;6.05;;;5.00;99.50;;;;;;4885895;29;20033;-89
2022/03/20 02:37:18;;;;;;;11.43;5.80;;;5.00;99.60;;;;;;4885665;29;20040;-90
2022/03/20 02:39:44;;;;;;;12.88;6.30;;;4.90;99.90;;;;;;4901355;29;20558;-90
2022/03/20 02:42:13;;;;;;;10.27;5.90;;;4.90;99.90;;;;;;4885505;29;20040;-90
2022/03/20 02:45:00;;;;;;;10.35;6.30;;;4.90;99.90;;;;;;4885829;29;20458;-91
2022/03/20 02:47:31;;;;;;;11.35;6.50;;;4.90;99.90;;;;;;4885186;29;20143;-90
2022/03/20 02:50:04;;;;;;;10.25;5.65;;;4.90;99.90;;;;;;4901438;29;20131;-90
2022/03/20 02:52:53;;;;;;;10.82;6.43;;;4.90;99.90;;;;;;4901658;29;20127;-90
2022/03/20 02:55:27;;;;;;;10.93;5.65;;;4.80;99.90;;;;;;4889498;29;20177;-90
2022/03/20 02:57:55;;;;;;;11.40;6.55;;;4.80;99.90;;;;;;4885504;29;20399;-89
2022/03/20 03:00:25;;;;;;;10.60;6.20;;;4.80;99.90;;;;;;4885860;29;20036;-90
2022/03/20 03:02:54;;;;;;;9.60;5.72;;;4.80;99.90;;;;;;4885644;29;20053;-90
2022/03/20 03:05:21;;;;;;;12.35;6.38;;;4.80;99.90;;;;;;4885561;29;20037;-91
2022/03/20 03:13:21;;;;;;;13.07;7.30;;;4.70;99.90;;;;;;4902287;29;20494;-89
2022/03/20 03:15:47;;;;;;;13.25;7.50;;;4.70;99.90;;;;;;4901195;29;20033;-90
2022/03/20 03:18:13;;;;;;;11.45;7.30;;;4.70;99.90;;;;;;4900571;29;20502;-90
2022/03/20 03:20:38;;;;;;;10.10;6.47;;;4.70;99.90;;;;;;4900606;29;20111;-89
2022/03/20 03:23:04;;;;;;;11.18;7.45;;;4.70;99.90;;;;;;4900895;29;20044;-89
2022/03/20 03:25:37;;;;;;;15.63;8.80;;;4.70;99.90;;;;;;4900897;29;20116;-90
2022/03/20 03:28:04;;;;;;;12.70;7.53;;;4.60;99.90;;;;;;4886095;29;20033;-89
2022/03/20 03:30:29;;;;;;;12.82;8.50;;;4.60;99.90;;;;;;4889212;29;20029;-89
2022/03/20 03:32:56;;;;;;;12.20;7.20;;;4.60;99.90;;;;;;4902068;29;20092;-90
2022/03/20 03:38:06;;;;;;;14.02;7.93;;;4.60;99.90;;;;;;4902455;29;20048;-90
2022/03/20 03:40:31;;;;;;;15.95;9.65;;;4.60;99.90;;;;;;4900934;29;20032;-89
2022/03/20 03:42:58;;;;;;;14.02;8.25;;;4.60;99.90;;;;;;4885600;29;20177;-90
2022/03/20 03:45:24;;;;;;;15.25;8.98;;;4.60;99.90;;;;;;4886314;29;20635;-89
2022/03/20 03:47:51;;;;;;;14.55;8.75;;;4.50;99.90;;;;;;4887781;29;20048;-90
2022/03/20 03:50:18;;;;;;;13.05;8.52;;;4.60;99.90;;;;;;4885261;29;20052;-89
2022/03/20 03:52:44;;;;;;;15.13;8.80;;;4.60;99.90;;;;;;4885391;29;20044;-89
2022/03/20 03:55:10;;;;;;;13.30;8.23;;;4.60;99.90;;;;;;4885217;29;20037;-88
2022/03/20 03:57:36;;;;;;;13.35;8.68;;;4.60;99.90;;;;;;4900979;29;20111;-90
2022/03/20 04:00:03;;;;;;;18.73;11.45;;;4.60;99.90;;;;;;4903142;29;20036;-90
2022/03/20 04:02:29;;;;;;;14.95;9.70;;;4.70;99.90;;;;;;4889719;29;20048;-90
2022/03/20 04:04:55;;;;;;;17.00;10.52;;;4.70;99.90;;;;;;4905574;29;20036;-91
2022/03/20 04:07:21;;;;;;;15.45;10.23;;;4.80;99.90;;;;;;4912817;29;20037;-90
2022/03/20 04:09:47;;;;;;;17.27;10.43;;;4.80;99.90;;;;;;4912813;29;20097;-91
2022/03/20 04:12:13;;;;;;;16.67;10.27;;;4.90;99.90;;;;;;4888652;29;20040;-90
2022/03/20 04:14:43;;;;;;;16.05;10.30;;;4.90;99.90;;;;;;4886727;29;20068;-91
2022/03/20 04:17:10;;;;;;;17.05;11.43;;;4.90;99.90;;;;;;4885858;29;20032;-90
2022/03/20 04:19:39;;;;;;;15.55;9.70;;;4.90;99.90;;;;;;4885784;29;20032;-91
2022/03/20 04:22:05;;;;;;;15.05;9.98;;;5.00;99.90;;;;;;4901654;29;20044;-90
2022/03/20 04:24:31;;;;;;;19.35;11.38;;;5.00;99.90;;;;;;4898563;29;20040;-91
2022/03/20 04:26:58;;;;;;;16.15;10.82;;;4.90;99.90;;;;;;4903279;29;20040;-91
2022/03/20 04:29:27;;;;;;;15.30;10.63;;;5.00;99.90;;;;;;4922408;29;20043;-90
2022/03/20 04:31:54;;;;;;;15.10;10.25;;;4.90;99.90;;;;;;4904231;29;20049;-90
2022/03/20 04:34:21;;;;;;;16.65;10.13;;;4.90;99.90;;;;;;4906989;29;20017;-91
2022/03/20 04:36:46;;;;;;;15.88;11.18;;;4.80;99.90;;;;;;4907389;29;20047;-92
2022/03/20 04:39:12;;;;;;;17.95;11.52;;;4.80;99.90;;;;;;4923045;28;20028;-92
2022/03/20 04:41:38;;;;;;;14.50;9.93;;;4.90;99.90;;;;;;4922872;29;20032;-91
2022/03/20 04:44:03;;;;;;;16.60;11.07;;;4.90;99.90;;;;;;4922938;29;20043;-91
2022/03/20 04:46:29;;;;;;;18.85;11.23;;;4.90;99.90;;;;;;4922550;29;20061;-89
2022/03/20 04:59:54;;;;;;;19.48;12.15;;;5.00;99.90;;;;;;4917802;29;20084;-91
2022/03/20 05:02:20;;;;;;;19.95;11.93;;;5.00;99.90;;;;;;4913928;29;20056;-90
2022/03/20 05:04:46;;;;;;;17.58;11.00;;;5.10;99.90;;;;;;4901499;29;20063;-91
2022/03/20 05:07:12;;;;;;;16.00;10.25;;;5.10;99.90;;;;;;4900809;29;20509;-90
2022/03/20 05:15:10;;;;;;;18.33;12.52;;;5.10;99.90;;;;;;4901504;29;20057;-90
2022/03/20 05:17:36;;;;;;;16.58;11.50;;;5.10;99.90;;;;;;4884975;29;20036;-90
2022/03/20 05:20:03;;;;;;;17.27;11.65;;;5.10;99.90;;;;;;4884312;29;20033;-89
2022/03/20 05:22:30;;;;;;;17.40;11.60;;;5.10;99.90;;;;;;4884467;29;20047;-90
2022/03/20 05:24:56;;;;;;;16.52;11.55;;;5.10;99.90;;;;;;4899912;29;20033;-91
2022/03/20 05:27:22;;;;;;;18.35;11.80;;;5.20;99.90;;;;;;4899719;29;20423;-89
2022/03/20 05:29:48;;;;;;;14.80;10.93;;;5.10;99.90;;;;;;4899553;29;20065;-90
2022/03/20 05:32:14;;;;;;;21.67;12.27;;;5.10;99.90;;;;;;4899417;29;20055;-92
2022/03/20 05:34:40;;;;;;;19.88;12.35;;;5.10;99.90;;;;;;4883989;29;20028;-90
2022/03/20 05:37:07;;;;;;;17.13;10.93;;;5.20;99.90;;;;;;4900170;29;20479;-91
2022/03/20 05:39:33;;;;;;;18.58;11.68;;;5.10;99.90;;;;;;4885917;29;20029;-91
2022/03/20 05:41:59;;;;;;;16.90;10.70;;;5.10;99.90;;;;;;4903673;29;20040;-90
2022/03/20 05:44:26;;;;;;;15.65;10.98;;;5.10;99.90;;;;;;4902840;29;20033;-91
2022/03/20 05:46:54;;;;;;;16.33;10.38;;;5.10;99.90;;;;;;4887725;29;20049;-91
2022/03/20 05:49:22;;;;;;;20.00;11.93;;;5.10;99.90;;;;;;4888059;29;20116;-90
2022/03/20 05:51:48;;;;;;;22.35;12.32;;;5.10;99.90;;;;;;4887826;29;20041;-91
2022/03/20 05:54:15;;;;;;;16.50;10.65;;;5.10;99.90;;;;;;4887629;29;20141;-89
2022/03/20 05:59:27;;;;;;;18.10;11.77;;;5.10;99.90;;;;;;4904095;29;20046;-90
2022/03/20 06:01:53;;;;;;;18.90;12.30;;;5.10;99.90;;;;;;4886709;29;20056;-91
2022/03/20 06:04:21;;;;;;;18.08;11.40;;;5.10;99.90;;;;;;4887833;29;20127;-90
2022/03/20 06:06:48;;;;;;;19.73;12.90;;;5.10;99.90;;;;;;4888394;29;20500;-89
2022/03/20 06:09:17;;;;;;;15.35;10.85;;;5.10;99.90;;;;;;4890170;29;20024;-89
2022/03/20 06:11:49;;;;;;;17.85;11.35;;;5.10;99.90;;;;;;4889360;29;20411;-90
2022/03/20 06:14:21;;;;;;;18.75;12.25;;;5.10;99.90;;;;;;4905419;29;20036;-90
2022/03/20 06:16:51;;;;;;;15.50;10.88;;;5.10;99.90;;;;;;4905448;29;20487;-89
2022/03/20 06:19:29;;;;;;;18.67;11.85;;;5.10;99.90;;;;;;4905947;29;20048;-89
2022/03/20 06:22:02;;;;;;;19.95;11.35;;;5.10;99.90;;;;;;4905149;29;20043;-90
2022/03/20 06:24:28;;;;;;;17.30;11.65;;;5.10;99.90;;;;;;4904421;29;20377;-90
2022/03/20 06:26:53;;;;;;;18.95;11.88;;;5.00;99.90;;;;;;4887996;29;20049;-90
2022/03/20 06:29:19;;;;;;;17.00;11.50;;;5.10;99.90;;;;;;4902922;29;20092;-90
2022/03/20 06:31:48;;;;;;;18.77;12.80;;;5.00;99.90;;;;;;4901879;29;20037;-90
2022/03/20 06:34:14;;;;;;;20.48;12.98;;;5.00;99.90;;;;;;4901854;29;20028;-91
2022/03/20 06:36:40;;;;;;;16.15;11.38;;;4.90;99.90;;;;;;4901708;29;20402;-89
2022/03/20 06:39:06;;;;;;;14.88;11.40;;;4.90;99.90;;;;;;4901763;29;20043;-89
2022/03/20 06:41:31;;;;;;;17.95;12.77;;;4.90;99.90;;;;;;4902653;29;20052;-90
2022/03/20 06:43:57;;;;;;;18.90;12.85;;;4.90;99.90;;;;;;4902424;29;20068;-91
2022/03/20 06:46:22;;;;;;;17.95;13.07;;;4.90;99.90;;;;;;4901006;29;20068;-91
2022/03/20 06:48:48;;;;;;;19.85;13.45;;;4.90;99.90;;;;;;4901107;29;20033;-90
2022/03/20 06:51:17;;;;;;;20.27;13.32;;;4.80;99.90;;;;;;4900082;29;20036;-90
2022/03/20 06:53:42;;;;;;;20.27;13.77;;;4.80;99.90;;;;;;4901289;29;20046;-91
2022/03/20 06:56:08;;;;;;;20.60;12.15;;;4.80;99.90;;;;;;4901558;29;20033;-90
2022/03/20 06:58:35;;;;;;;17.52;12.60;;;4.80;99.90;;;;;;4901708;29;20025;-91
2022/03/20 07:01:01;;;;;;;19.17;12.73;;;4.90;99.90;;;;;;4901840;29;20045;-91
2022/03/20 07:03:27;;;;;;;20.27;13.63;;;4.90;99.90;;;;;;4901348;29;20505;-91
2022/03/20 07:05:52;;;;;;;16.02;11.93;;;4.90;99.90;;;;;;4901162;29;20067;-90
2022/03/20 07:08:20;;;;;;;18.73;13.00;;;5.00;99.90;;;;;;4901737;29;20376;-91
2022/03/20 07:10:46;;;;;;;18.80;13.27;;;5.00;99.90;;;;;;4886050;29;20036;-91
2022/03/20 07:13:56;;;;;;;18.52;13.35;;;5.00;99.90;;;;;;4901514;29;20035;-91
2022/03/20 07:15:58;;;;;;;19.25;12.82;;;5.00;99.90;;;;;;4892227;29;20104;-90
2022/03/20 07:18:24;;;;;;;18.65;12.27;;;5.10;99.90;;;;;;4901205;29;20033;-88
2022/03/20 07:20:50;;;;;;;16.73;11.25;;;5.20;99.90;;;;;;4885334;29;20475;-89
2022/03/20 07:23:16;;;;;;;18.15;11.88;;;5.20;99.90;;;;;;4900925;29;20444;-89
2022/03/20 07:31:12;;;;;;;16.83;11.40;;;5.40;99.90;;;;;;4901840;29;20043;-90
2022/03/20 07:33:49;;;;;;;;;;;;;;;;;;;;;
2022/03/20 07:36:15;;;;;;;16.58;11.38;;;5.60;99.90;;;;;;4901354;29;20572;-90
2022/03/20 07:38:41;;;;;;;17.15;12.40;;;5.70;99.90;;;;;;4900233;29;20119;-91
2022/03/20 07:41:07;;;;;;;22.10;13.77;;;5.80;99.90;;;;;;4900630;29;20065;-90
2022/03/20 07:43:40;;;;;;;18.10;12.93;;;5.80;99.60;;;;;;4900311;29;20037;-87
2022/03/20 07:46:06;;;;;;;18.80;13.25;;;5.90;99.70;;;;;;4900258;29;20131;-89
2022/03/20 07:48:34;;;;;;;19.42;13.98;;;5.90;99.20;;;;;;4900214;29;20063;-90
2022/03/20 07:51:00;;;;;;;20.80;14.45;;;5.90;99.00;;;;;;4900569;29;20043;-91
2022/03/20 07:53:26;;;;;;;19.40;12.98;;;5.80;98.90;;;;;;4900298;29;20041;-90
2022/03/20 07:55:55;;;;;;;21.80;13.77;;;5.80;99.10;;;;;;4898599;29;20044;-89
2022/03/20 07:58:20;;;;;;;20.20;13.52;;;5.80;98.90;;;;;;4897974;29;20052;-90
2022/03/20 08:00:47;;;;;;;20.95;14.45;;;5.80;99.40;;;;;;4897461;29;20032;-91
2022/03/20 08:03:13;;;;;;;19.58;13.43;;;5.80;99.00;;;;;;4882204;29;20152;-89
2022/03/20 08:05:50;;;;;;;17.58;12.77;;;5.80;98.80;;;;;;4897564;29;20040;-92
2022/03/20 08:08:16;;;;;;;16.63;11.95;;;5.90;99.00;;;;;;4897972;29;20524;-91
2022/03/20 08:13:38;;;;;;;22.20;15.70;;;6.00;98.70;;;;;;4898834;29;20037;-91
2022/03/20 08:16:04;;;;;;;24.83;15.40;;;6.00;98.10;;;;;;4899031;29;20044;-91
2022/03/20 08:18:31;;;;;;;21.77;14.35;;;6.00;97.70;;;;;;4897908;29;20037;-90
2022/03/20 08:21:34;;;;;;;;;;;;;;;;;;;;;
2022/03/20 08:24:12;;;;;;;18.77;13.10;;;6.00;97.80;;;;;;4898583;29;20033;-90
2022/03/20 08:26:40;;;;;;;18.27;12.75;;;6.10;97.80;;;;;;4897885;29;20305;-90
2022/03/20 08:29:08;;;;;;;20.25;13.02;;;6.20;97.80;;;;;;4897572;29;20115;-91
2022/03/20 08:31:34;;;;;;;19.23;12.93;;;6.30;97.70;;;;;;4897409;29;20100;-90
2022/03/20 08:34:00;;;;;;;18.40;12.75;;;6.40;97.80;;;;;;4898119;29;20032;-91
2022/03/20 08:36:26;;;;;;;19.38;12.65;;;6.60;98.00;;;;;;4896462;29;20035;-89
2022/03/20 08:39:01;;;;;;;17.65;11.93;;;6.80;97.60;;;;;;4900305;29;20029;-91
2022/03/20 08:41:27;;;;;;;20.02;13.00;;;6.90;97.50;;;;;;4903877;29;20029;-91
2022/03/20 08:43:59;;;;;;;19.25;13.25;;;7.00;97.40;;;;;;4900041;29;20025;-92
2022/03/20 08:46:24;;;;;;;20.48;13.82;;;7.10;97.10;;;;;;4897734;29;20048;-90
2022/03/20 08:48:50;;;;;;;19.05;12.98;;;7.20;96.70;;;;;;4897718;29;20036;-89
2022/03/20 08:51:16;;;;;;;21.05;14.60;;;7.20;96.80;;;;;;4898344;29;20040;-90
2022/03/20 08:53:42;;;;;;;22.10;15.63;;;7.20;95.80;;;;;;4898419;29;20036;-89
2022/03/20 08:56:07;;;;;;;23.98;15.10;;;7.10;95.30;;;;;;4898337;29;20056;-90
2022/03/20 08:58:33;;;;;;;21.60;14.70;;;7.10;96.00;;;;;;4898953;29;20059;-91
2022/03/20 09:00:59;;;;;;;20.15;14.50;;;7.10;95.70;;;;;;4899154;29;20153;-92
2022/03/20 09:03:25;;;;;;;21.13;15.43;;;7.10;95.60;;;;;;4902800;29;20078;-91
2022/03/20 09:05:51;;;;;;;22.48;15.57;;;7.10;95.70;;;;;;4904028;29;20049;-91
2022/03/20 09:08:17;;;;;;;21.75;14.80;;;7.10;95.30;;;;;;4887643;29;20116;-91
2022/03/20 09:10:42;;;;;;;21.20;14.98;;;7.10;95.60;;;;;;4902999;29;20068;-90
2022/03/20 09:13:08;;;;;;;21.90;15.82;;;7.10;95.50;;;;;;4903789;29;20036;-91
2022/03/20 09:15:34;;;;;;;23.63;15.13;;;7.10;95.20;;;;;;4898591;29;20060;-89
2022/03/20 09:20:48;;;;;;;21.60;15.68;;;7.30;95.20;;;;;;4897974;29;20048;-89
2022/03/20 09:23:14;;;;;;;22.02;15.15;;;7.60;95.00;;;;;;4880945;29;20490;-91
2022/03/20 09:25:53;;;;;;;;;;;;;;;;;;;;;
2022/03/20 09:28:21;;;;;;;23.02;14.27;;;8.00;94.70;;;;;;4897104;29;20029;-89
2022/03/20 09:30:48;;;;;;;22.55;15.38;;;8.10;94.40;;;;;;4896021;29;20039;-89
2022/03/20 09:33:21;;;;;;;20.98;14.30;;;8.10;94.10;;;;;;4897276;29;20036;-89
2022/03/20 09:35:47;;;;;;;23.02;16.08;;;8.10;94.10;;;;;;4898618;29;20084;-89
2022/03/20 09:38:13;;;;;;;21.08;15.02;;;8.20;93.80;;;;;;4899734;29;20041;-89
2022/03/20 09:40:39;;;;;;;21.85;15.82;;;8.20;93.80;;;;;;4899178;29;20050;-89
2022/03/20 09:43:06;;;;;;;20.88;15.75;;;8.30;93.80;;;;;;4881020;29;20617;-88
2022/03/20 09:45:33;;;;;;;21.73;15.05;;;8.50;93.80;;;;;;4881309;29;20028;-89
2022/03/20 09:48:00;;;;;;;23.25;15.07;;;8.80;93.80;;;;;;4887429;29;20074;-90
2022/03/20 09:50:29;;;;;;;22.98;15.85;;;9.20;93.50;;;;;;4897800;29;20040;-91
2022/03/20 09:52:54;;;;;;;20.55;15.43;;;9.70;93.40;;;;;;4881583;29;20040;-89
2022/03/20 09:55:20;;;;;;;20.55;15.35;;;10.70;93.60;;;;;;4891495;29;20472;-89
2022/03/20 09:57:49;;;;;;;20.05;14.35;;;11.40;93.10;;;;;;4880276;29;20039;-88
2022/03/20 10:00:18;;;;;;;21.42;16.30;;;12.40;92.30;;;;;;4880486;29;20491;-91
2022/03/20 10:02:47;;;;;;;23.13;16.20;;;13.30;91.30;;;;;;4880371;29;20051;-91
2022/03/20 10:05:29;;;;;;;21.88;16.63;;;14.00;90.10;;;;;;4881917;29;20041;-95
2022/03/20 10:08:10;;;;;;;21.17;15.93;;;14.50;87.80;;;;;;4882377;29;20052;-93
2022/03/20 10:10:52;;;;;;;21.25;16.00;;;14.50;85.90;;;;;;4882599;29;20032;-91
2022/03/20 10:13:28;;;;;;;;;;;;;;;;;;;;;
2022/03/20 10:15:54;;;;;;;21.90;16.15;;;13.80;85.50;;;;;;4902237;29;20123;-92
2022/03/20 10:18:23;;;;;;;20.63;15.27;;;14.30;85.60;;;;;;4885554;29;20048;-92
2022/03/20 10:20:59;;;;;;;20.00;15.45;;;14.60;84.90;;;;;;4883135;29;20040;-91
2022/03/20 10:23:46;;;;;;;22.17;16.40;;;15.00;83.70;;;;;;4917010;29;20029;-93
2022/03/20 10:26:17;;;;;;;20.40;16.45;;;15.70;81.30;;;;;;4904814;29;20036;-93
2022/03/20 10:28:55;;;;;;;25.77;19.95;;;15.90;80.80;;;;;;4906102;29;20026;-94
2022/03/20 10:31:21;;;;;;;25.80;19.92;;;15.60;76.80;;;;;;4905010;29;20063;-94
2022/03/20 10:34:04;;;;;;;25.65;20.30;;;15.10;76.90;;;;;;4905278;29;20036;-92
2022/03/20 10:36:32;;;;;;;22.52;18.75;;;14.40;74.60;;;;;;4900599;29;20055;-92
2022/03/20 10:38:58;;;;;;;24.60;19.75;;;13.60;77.20;;;;;;4886200;29;20057;-91
2022/03/20 10:41:26;;;;;;;25.77;19.33;;;13.00;77.10;;;;;;4886249;29;20036;-93
2022/03/20 10:43:53;;;;;;;23.10;17.77;;;12.40;77.30;;;;;;4886760;29;20033;-89
2022/03/20 10:46:25;;;;;;;25.10;18.45;;;12.00;78.50;;;;;;4887377;29;20041;-91
2022/03/20 10:48:54;;;;;;;25.00;17.77;;;11.60;79.70;;;;;;4886987;29;20036;-90
2022/03/20 10:51:41;;;;;;;24.52;18.85;;;11.30;80.80;;;;;;4888012;29;20033;-88
2022/03/20 10:54:15;;;;;;;28.95;21.38;;;11.00;82.30;;;;;;4887947;29;20092;-89
2022/03/20 10:56:58;;;;;;;26.80;19.90;;;10.70;82.30;;;;;;4905038;29;20036;-89
2022/03/20 10:59:29;;;;;;;23.27;17.20;;;10.40;83.60;;;;;;4885289;29;20139;-90
2022/03/20 11:01:55;;;;;;;25.67;19.13;;;10.20;83.70;;;;;;4885919;29;20056;-90
2022/03/20 11:04:23;;;;;;;24.38;17.25;;;10.00;83.90;;;;;;4888263;29;20499;-90
2022/03/20 11:06:54;;;;;;;25.42;17.25;;;9.90;84.30;;;;;;4885817;29;20193;-90
2022/03/20 11:09:20;;;;;;;27.70;20.85;;;9.80;85.40;;;;;;4887294;29;20037;-94
2022/03/20 11:11:50;;;;;;;29.65;20.70;;;9.80;85.80;;;;;;4887694;29;20122;-90
2022/03/20 11:14:19;;;;;;;24.73;18.80;;;9.70;84.80;;;;;;4897132;29;20039;-92
2022/03/20 11:17:04;;;;;;;27.75;21.75;;;9.60;86.40;;;;;;4917133;29;20040;-90
2022/03/20 11:19:32;;;;;;;30.80;21.63;;;9.60;86.40;;;;;;4884323;29;20085;-90
2022/03/20 11:22:06;;;;;;;26.75;19.23;;;9.70;86.10;;;;;;4884490;29;20047;-89
2022/03/20 11:24:33;;;;;;;24.00;17.83;;;9.70;86.20;;;;;;4885392;29;20036;-90
2022/03/20 11:27:04;;;;;;;25.98;19.10;;;9.90;86.60;;;;;;4885418;29;20055;-88
2022/03/20 11:29:36;;;;;;;25.30;18.65;;;10.10;86.50;;;;;;4885215;29;20077;-90
2022/03/20 11:32:04;;;;;;;29.77;22.55;;;10.30;86.80;;;;;;4885479;29;20364;-92
2022/03/20 11:34:32;;;;;;;28.60;21.92;;;10.40;85.20;;;;;;4885355;29;20045;-88
2022/03/20 11:37:07;;;;;;;31.58;23.23;;;10.30;85.30;;;;;;4885848;29;20040;-88
2022/03/20 11:39:34;;;;;;;29.70;22.25;;;10.20;84.80;;;;;;4895335;29;20060;-89
2022/03/20 11:42:22;;;;;;;35.25;26.10;;;10.00;85.20;;;;;;4901313;29;20484;-88
2022/03/20 11:45:09;;;;;;;32.92;23.75;;;9.90;85.60;;;;;;4909201;29;20029;-88
2022/03/20 11:47:40;;;;;;;28.85;22.23;;;9.70;86.30;;;;;;4896633;29;20036;-88
2022/03/20 11:50:20;;;;;;;33.72;23.58;;;9.60;88.40;;;;;;4892279;29;20036;-89
2022/03/20 11:53:03;;;;;;;34.13;23.85;;;9.70;88.10;;;;;;4892996;29;20113;-89
2022/03/20 11:55:40;;;;;;;33.20;23.75;;;9.70;88.30;;;;;;4896816;29;20214;-88
2022/03/20 11:58:38;;;;;;;33.05;24.30;;;9.70;89.40;;;;;;4898251;29;20043;-88
2022/03/20 12:01:11;;;;;;;37.83;24.92;;;9.70;86.50;;;;;;4913185;29;20071;-88
2022/03/20 12:03:48;;;;;;;36.58;25.23;;;9.60;88.30;;;;;;4894451;29;20052;-87
2022/03/20 12:06:44;;;;;;;35.88;26.17;;;9.60;87.70;;;;;;4908564;29;20032;-87
2022/03/20 12:09:28;;;;;;;33.28;24.85;;;9.50;87.70;;;;;;4888414;29;20033;-88
2022/03/20 12:12:15;;;;;;;31.80;24.38;;;9.40;88.00;;;;;;4896135;29;20104;-93
2022/03/20 12:14:46;;;;;;;33.15;23.80;;;9.50;88.80;;;;;;4891970;29;20036;-91
2022/03/20 12:17:12;;;;;;;31.55;23.95;;;9.60;89.30;;;;;;4908987;29;20040;-89
2022/03/20 12:19:53;;;;;;;31.85;22.88;;;9.60;88.70;;;;;;4895220;29;20479;-89
2022/03/20 12:22:19;;;;;;;29.50;20.67;;;9.70;89.40;;;;;;4905776;29;20060;-90
2022/03/20 12:25:00;;;;;;;29.67;20.42;;;9.80;90.10;;;;;;4910287;29;20040;-91
2022/03/20 12:27:25;;;;;;;25.65;18.90;;;9.90;90.10;;;;;;4906226;29;20050;-91
2022/03/20 12:30:04;;;;;;;28.35;22.13;;;9.90;90.30;;;;;;4914739;29;20123;-90
2022/03/20 12:32:48;;;;;;;32.53;24.10;;;10.00;90.10;;;;;;4898808;29;20495;-90
2022/03/20 12:35:18;;;;;;;28.95;21.70;;;10.00;89.10;;;;;;4884940;29;20127;-91
2022/03/20 12:37:44;;;;;;;33.15;22.20;;;10.00;90.00;;;;;;4884042;29;20036;-88
2022/03/20 12:40:12;;;;;;;30.88;20.80;;;10.00;89.50;;;;;;4883513;29;20698;-89
2022/03/20 12:43:07;;;;;;;27.90;19.50;;;10.10;90.20;;;;;;4883730;29;20084;-88
2022/03/20 12:45:42;;;;;;;27.92;21.17;;;10.20;90.20;;;;;;4889309;29;20558;-89
2022/03/20 12:48:17;;;;;;;25.63;18.27;;;10.30;89.50;;;;;;4883316;29;20108;-89
2022/03/20 12:50:46;;;;;;;25.85;18.42;;;10.50;89.80;;;;;;4901761;29;20036;-91
2022/03/20 12:53:21;;;;;;;21.95;16.70;;;10.50;89.90;;;;;;4904111;29;20036;-89
2022/03/20 12:55:55;;;;;;;20.77;15.63;;;10.50;90.00;;;;;;4903012;29;20044;-89
2022/03/20 12:58:22;;;;;;;26.40;20.27;;;10.60;90.30;;;;;;4908187;29;20048;-88
2022/03/20 13:00:48;;;;;;;27.02;21.10;;;10.50;90.10;;;;;;4919537;28;20028;-90
2022/03/20 13:03:16;;;;;;;28.73;21.52;;;10.40;90.20;;;;;;4917381;29;20087;-89
2022/03/20 13:05:49;;;;;;;26.70;19.85;;;10.30;89.50;;;;;;4925311;28;20016;-91
2022/03/20 13:08:25;;;;;;;22.38;16.67;;;10.20;90.20;;;;;;4925072;28;20029;-88
2022/03/20 13:10:54;;;;;;;25.08;19.08;;;10.20;90.20;;;;;;4925593;29;20060;-89
2022/03/20 13:13:33;;;;;;;23.20;17.65;;;10.20;90.60;;;;;;4925258;28;20044;-90
2022/03/20 13:16:01;;;;;;;29.20;21.45;;;10.10;90.50;;;;;;4923575;28;20048;-90
2022/03/20 13:18:29;;;;;;;28.23;21.05;;;10.10;90.70;;;;;;4928374;28;20048;-90
2022/03/20 13:20:55;;;;;;;30.38;22.35;;;10.00;90.70;;;;;;4944394;29;20030;-90
2022/03/20 13:23:25;;;;;;;31.95;23.02;;;10.00;91.00;;;;;;4943925;28;20047;-90
2022/03/20 13:25:53;;;;;;;32.33;23.85;;;9.90;91.10;;;;;;4941377;29;20031;-88
2022/03/20 13:28:28;;;;;;;33.20;25.17;;;9.80;90.40;;;;;;4940831;29;20048;-88
2022/03/20 13:30:56;;;;;;;37.17;25.90;;;9.70;90.10;;;;;;4938532;29;20615;-88